sensor_id;sensor_type;location;lat;lon;timestamp;pressure;altitude;pressure_sealevel;temperature;humidity
44481;BME280;30184;42.018;23.670;2023-01-29T00:01:36;91325.47;;;1.19;85.29
44481;BME280;30184;42.018;23.670;2023-01-29T00:04:05;91234.22;;;0.19;85.98
44481;BME280;30184;42.018;23.670;2023-01-29T00:06:36;91332.69;;;1.15;86.12
44481;BME280;30184;42.018;23.670;2023-01-29T00:09:06;91306.25;;;0.88;86.07
44481;BME280;30184;42.018;23.670;2023-01-29T00:11:36;91327.34;;;1.15;85.68
44481;BME280;30184;42.018;23.670;2023-01-29T00:14:05;91333.84;;;1.13;85.30
44481;BME280;30184;42.018;23.670;2023-01-29T00:16:35;91294.78;;;0.84;85.28
44481;BME280;30184;42.018;23.670;2023-01-29T00:19:05;91339.56;;;1.16;85.49
44481;BME280;30184;42.018;23.670;2023-01-29T00:21:36;91366.66;;;1.07;85.09
44481;BME280;30184;42.018;23.670;2023-01-29T00:24:05;91309.25;;;0.76;84.82
44481;BME280;30184;42.018;23.670;2023-01-29T00:26:35;91364.38;;;1.09;84.78
44481;BME280;30184;42.018;23.670;2023-01-29T00:29:05;91371.66;;;0.50;84.56
44481;BME280;30184;42.018;23.670;2023-01-29T00:31:35;91349.13;;;1.17;84.97
44481;BME280;30184;42.018;23.670;2023-01-29T00:34:06;91348.34;;;1.16;85.06
44481;BME280;30184;42.018;23.670;2023-01-29T00:36:38;91242.00;;;0.46;85.18
44481;BME280;30184;42.018;23.670;2023-01-29T00:39:08;91144.03;;;-0.30;85.15
44481;BME280;30184;42.018;23.670;2023-01-29T00:41:41;91323.81;;;0.89;85.33
44481;BME280;30184;42.018;23.670;2023-01-29T00:44:27;91351.00;;;1.12;85.88
44481;BME280;30184;42.018;23.670;2023-01-29T00:47:14;91348.72;;;1.11;85.78
44481;BME280;30184;42.018;23.670;2023-01-29T00:50:01;91293.59;;;0.74;84.68
44481;BME280;30184;42.018;23.670;2023-01-29T00:52:33;91274.47;;;0.62;84.54
44481;BME280;30184;42.018;23.670;2023-01-29T00:55:04;91342.19;;;1.05;84.32
44481;BME280;30184;42.018;23.670;2023-01-29T00:57:36;91389.53;;;1.04;83.78
44481;BME280;30184;42.018;23.670;2023-01-29T01:00:08;91345.28;;;1.07;83.64
44481;BME280;30184;42.018;23.670;2023-01-29T01:02:38;91348.72;;;1.07;83.58
44481;BME280;30184;42.018;23.670;2023-01-29T01:05:33;91342.19;;;1.05;83.62
44481;BME280;30184;42.018;23.670;2023-01-29T01:08:05;91344.09;;;1.04;83.97
44481;BME280;30184;42.018;23.670;2023-01-29T01:11:00;91337.63;;;1.05;84.44
44481;BME280;30184;42.018;23.670;2023-01-29T01:13:31;91171.19;;;-0.10;84.41
44481;BME280;30184;42.018;23.670;2023-01-29T01:16:00;91338.41;;;1.09;84.86
44481;BME280;30184;42.018;23.670;2023-01-29T01:18:30;91330.75;;;1.01;85.16
44481;BME280;30184;42.018;23.670;2023-01-29T01:20:59;91287.88;;;0.76;85.11
44481;BME280;30184;42.018;23.670;2023-01-29T01:23:30;91313.06;;;0.75;85.23
44481;BME280;30184;42.018;23.670;2023-01-29T01:26:00;91352.53;;;1.06;85.16
44481;BME280;30184;42.018;23.670;2023-01-29T01:28:29;91321.88;;;0.86;84.74
44481;BME280;30184;42.018;23.670;2023-01-29T01:31:07;91349.84;;;1.06;84.10
44481;BME280;30184;42.018;23.670;2023-01-29T01:33:37;91298.19;;;0.74;83.92
44481;BME280;30184;42.018;23.670;2023-01-29T01:36:07;91226.66;;;0.32;83.75
44481;BME280;30184;42.018;23.670;2023-01-29T01:38:39;91355.22;;;1.10;83.79
44481;BME280;30184;42.018;23.670;2023-01-29T01:41:14;91349.47;;;1.11;83.95
44481;BME280;30184;42.018;23.670;2023-01-29T01:43:49;91350.97;;;1.05;84.45
44481;BME280;30184;42.018;23.670;2023-01-29T01:46:19;91343.00;;;1.12;84.69
44481;BME280;30184;42.018;23.670;2023-01-29T01:48:53;91372.91;;;0.63;84.90
44481;BME280;30184;42.018;23.670;2023-01-29T01:51:25;91338.03;;;1.07;85.35
44481;BME280;30184;42.018;23.670;2023-01-29T01:54:01;91341.47;;;1.08;85.52
44481;BME280;30184;42.018;23.670;2023-01-29T01:56:34;91334.56;;;1.03;85.51
44481;BME280;30184;42.018;23.670;2023-01-29T01:59:09;91368.91;;;1.01;85.35
44481;BME280;30184;42.018;23.670;2023-01-29T02:01:41;91303.91;;;0.76;85.74
44481;BME280;30184;42.018;23.670;2023-01-29T02:04:15;91311.22;;;0.83;85.57
44481;BME280;30184;42.018;23.670;2023-01-29T02:07:06;91339.84;;;0.93;85.61
44481;BME280;30184;42.018;23.670;2023-01-29T02:09:59;91331.50;;;1.01;85.15
44481;BME280;30184;42.018;23.670;2023-01-29T02:12:30;91336.47;;;1.03;84.94
44481;BME280;30184;42.018;23.670;2023-01-29T02:15:00;91371.91;;;0.93;84.29
44481;BME280;30184;42.018;23.670;2023-01-29T02:17:31;91364.72;;;1.04;84.29
44481;BME280;30184;42.018;23.670;2023-01-29T02:20:09;91340.28;;;1.02;84.82
44481;BME280;30184;42.018;23.670;2023-01-29T02:23:07;91344.47;;;1.03;85.49
44481;BME280;30184;42.018;23.670;2023-01-29T02:26:09;91354.38;;;1.02;86.10
44481;BME280;30184;42.018;23.670;2023-01-29T02:28:46;91325.69;;;0.85;86.79
44481;BME280;30184;42.018;23.670;2023-01-29T02:31:28;91349.06;;;0.99;87.28
44481;BME280;30184;42.018;23.670;2023-01-29T02:34:09;91326.81;;;0.73;87.14
44481;BME280;30184;42.018;23.670;2023-01-29T02:36:45;91359.31;;;0.90;87.05
44481;BME280;30184;42.018;23.670;2023-01-29T02:39:23;91358.19;;;0.94;87.39
44481;BME280;30184;42.018;23.670;2023-01-29T02:42:00;91346.31;;;0.85;87.42
44481;BME280;30184;42.018;23.670;2023-01-29T02:44:36;91258.66;;;0.25;87.42
44481;BME280;30184;42.018;23.670;2023-01-29T02:47:11;91376.88;;;0.94;87.53
44481;BME280;30184;42.018;23.670;2023-01-29T02:49:48;91358.19;;;0.91;87.58
44481;BME280;30184;42.018;23.670;2023-01-29T02:52:22;91270.09;;;0.25;87.58
44481;BME280;30184;42.018;23.670;2023-01-29T02:54:58;91294.94;;;0.40;87.31
44481;BME280;30184;42.018;23.670;2023-01-29T02:57:35;91358.13;;;0.80;87.29
44481;BME280;30184;42.018;23.670;2023-01-29T03:00:12;91398.53;;;0.79;87.20
44481;BME280;30184;42.018;23.670;2023-01-29T03:02:48;91368.78;;;0.77;87.29
44481;BME280;30184;42.018;23.670;2023-01-29T03:05:27;91351.22;;;0.75;87.42
44481;BME280;30184;42.018;23.670;2023-01-29T03:08:03;91329.03;;;0.61;87.59
44481;BME280;30184;42.018;23.670;2023-01-29T03:10:38;91364.13;;;0.66;87.44
44481;BME280;30184;42.018;23.670;2023-01-29T03:13:13;91361.53;;;0.73;87.35
44481;BME280;30184;42.018;23.670;2023-01-29T03:15:48;91360.34;;;0.74;86.80
44481;BME280;30184;42.018;23.670;2023-01-29T03:18:43;91367.22;;;0.72;86.45
44481;BME280;30184;42.018;23.670;2023-01-29T03:21:19;91365.28;;;0.69;85.97
44481;BME280;30184;42.018;23.670;2023-01-29T03:24:11;91374.81;;;0.63;85.37
44481;BME280;30184;42.018;23.670;2023-01-29T03:27:01;91372.09;;;0.59;85.33
44481;BME280;30184;42.018;23.670;2023-01-29T03:29:51;91382.06;;;0.62;85.27
44481;BME280;30184;42.018;23.670;2023-01-29T03:32:50;91372.06;;;0.52;85.10
44481;BME280;30184;42.018;23.670;2023-01-29T03:35:22;91380.09;;;0.56;85.33
44481;BME280;30184;42.018;23.670;2023-01-29T03:38:06;91369.69;;;0.40;85.01
44481;BME280;30184;42.018;23.670;2023-01-29T03:40:43;91386.03;;;0.31;85.09
44481;BME280;30184;42.018;23.670;2023-01-29T03:43:24;91372.03;;;0.49;84.90
44481;BME280;30184;42.018;23.670;2023-01-29T03:46:03;91351.72;;;0.33;84.78
44481;BME280;30184;42.018;23.670;2023-01-29T03:48:36;91381.97;;;0.52;85.06
44481;BME280;30184;42.018;23.670;2023-01-29T03:51:15;91185.16;;;-0.82;84.75
44481;BME280;30184;42.018;23.670;2023-01-29T03:53:52;91403.66;;;0.43;84.72
44481;BME280;30184;42.018;23.670;2023-01-29T03:56:35;91350.19;;;0.32;84.97
44481;BME280;30184;42.018;23.670;2023-01-29T03:59:17;91383.09;;;0.51;84.58
44481;BME280;30184;42.018;23.670;2023-01-29T04:02:12;91385.38;;;0.49;84.40
44481;BME280;30184;42.018;23.670;2023-01-29T04:04:45;91361.97;;;0.24;84.49
44481;BME280;30184;42.018;23.670;2023-01-29T04:07:20;91389.53;;;0.43;84.66
44481;BME280;30184;42.018;23.670;2023-01-29T04:10:03;91378.06;;;0.35;84.95
44481;BME280;30184;42.018;23.670;2023-01-29T04:12:40;91318.34;;;-0.01;85.02
44481;BME280;30184;42.018;23.670;2023-01-29T04:15:14;91381.91;;;0.41;85.46
44481;BME280;30184;42.018;23.670;2023-01-29T04:17:49;91394.91;;;0.46;85.17
44481;BME280;30184;42.018;23.670;2023-01-29T04:20:29;91350.78;;;0.08;84.78
44481;BME280;30184;42.018;23.670;2023-01-29T04:22:58;91330.50;;;-0.04;84.63
44481;BME280;30184;42.018;23.670;2023-01-29T04:25:31;91386.03;;;0.31;84.75
44481;BME280;30184;42.018;23.670;2023-01-29T04:28:10;91406.69;;;0.42;84.56
44481;BME280;30184;42.018;23.670;2023-01-29T04:30:48;91406.66;;;0.34;84.44
44481;BME280;30184;42.018;23.670;2023-01-29T04:33:28;91409.31;;;0.34;84.33
44481;BME280;30184;42.018;23.670;2023-01-29T04:36:13;91290.72;;;-0.67;84.19
44481;BME280;30184;42.018;23.670;2023-01-29T04:38:56;91378.81;;;-0.12;84.59
44481;BME280;30184;42.018;23.670;2023-01-29T04:41:32;91414.59;;;0.31;84.93
44481;BME280;30184;42.018;23.670;2023-01-29T04:44:08;91415.38;;;0.31;85.18
44481;BME280;30184;42.018;23.670;2023-01-29T04:46:45;91425.69;;;0.33;85.40
44481;BME280;30184;42.018;23.670;2023-01-29T04:49:26;91293.97;;;-0.47;85.09
44481;BME280;30184;42.018;23.670;2023-01-29T04:52:03;91419.22;;;0.34;85.13
44481;BME280;30184;42.018;23.670;2023-01-29T04:54:47;91392.00;;;0.14;85.20
44481;BME280;30184;42.018;23.670;2023-01-29T04:57:23;91423.78;;;0.33;85.16
44481;BME280;30184;42.018;23.670;2023-01-29T04:59:58;91430.66;;;0.34;85.31
44481;BME280;30184;42.018;23.670;2023-01-29T05:02:30;91448.94;;;0.32;85.53
44481;BME280;30184;42.018;23.670;2023-01-29T05:05:03;91438.97;;;0.26;86.10
44481;BME280;30184;42.018;23.670;2023-01-29T05:07:37;91434.47;;;0.33;86.48
44481;BME280;30184;42.018;23.670;2023-01-29T05:10:11;91434.06;;;0.31;86.19
44481;BME280;30184;42.018;23.670;2023-01-29T05:12:44;91435.19;;;0.30;86.15
44481;BME280;30184;42.018;23.670;2023-01-29T05:15:17;91287.38;;;-0.97;85.68
44481;BME280;30184;42.018;23.670;2023-01-29T05:17:47;91448.13;;;0.28;85.65
44481;BME280;30184;42.018;23.670;2023-01-29T05:20:17;91381.06;;;-0.14;85.44
44481;BME280;30184;42.018;23.670;2023-01-29T05:22:49;91445.09;;;0.26;85.23
44481;BME280;30184;42.018;23.670;2023-01-29T05:25:21;91443.94;;;0.27;85.42
44481;BME280;30184;42.018;23.670;2023-01-29T05:27:52;91443.09;;;0.20;85.41
44481;BME280;30184;42.018;23.670;2023-01-29T05:30:34;91438.16;;;0.18;85.41
44481;BME280;30184;42.018;23.670;2023-01-29T05:33:11;91316.59;;;-0.67;85.21
44481;BME280;30184;42.018;23.670;2023-01-29T05:35:41;91460.34;;;0.29;85.46
44481;BME280;30184;42.018;23.670;2023-01-29T05:38:12;91444.63;;;0.21;85.38
44481;BME280;30184;42.018;23.670;2023-01-29T05:40:42;91479.38;;;0.28;85.26
44481;BME280;30184;42.018;23.670;2023-01-29T05:43:14;91502.09;;;0.11;85.67
44481;BME280;30184;42.018;23.670;2023-01-29T05:45:51;91464.91;;;0.25;85.93
44481;BME280;30184;42.018;23.670;2023-01-29T05:48:21;91475.56;;;0.25;85.67
44481;BME280;30184;42.018;23.670;2023-01-29T05:50:51;91475.16;;;0.23;85.51
44481;BME280;30184;42.018;23.670;2023-01-29T05:53:24;91460.47;;;0.03;85.30
44481;BME280;30184;42.018;23.670;2023-01-29T05:55:53;91482.41;;;0.23;85.67
44481;BME280;30184;42.018;23.670;2023-01-29T05:58:23;91518.59;;;0.20;85.60
44481;BME280;30184;42.018;23.670;2023-01-29T06:00:55;91486.97;;;0.22;85.57
44481;BME280;30184;42.018;23.670;2023-01-29T06:03:24;91487.75;;;0.23;85.59
44481;BME280;30184;42.018;23.670;2023-01-29T06:05:54;91486.59;;;0.24;85.78
44481;BME280;30184;42.018;23.670;2023-01-29T06:08:25;91497.22;;;0.17;85.81
44481;BME280;30184;42.018;23.670;2023-01-29T06:10:54;91454.75;;;0.01;85.79
44481;BME280;30184;42.018;23.670;2023-01-29T06:13:24;91475.03;;;0.09;85.85
44481;BME280;30184;42.018;23.670;2023-01-29T06:15:54;91495.81;;;0.30;85.88
44481;BME280;30184;42.018;23.670;2023-01-29T06:18:24;91503.44;;;0.31;85.71
44481;BME280;30184;42.018;23.670;2023-01-29T06:20:53;91503.44;;;0.31;85.67
44481;BME280;30184;42.018;23.670;2023-01-29T06:23:22;91525.50;;;0.25;85.63
44481;BME280;30184;42.018;23.670;2023-01-29T06:25:58;91452.88;;;0.05;85.77
44481;BME280;30184;42.018;23.670;2023-01-29T06:28:28;91554.69;;;0.44;85.97
44481;BME280;30184;42.018;23.670;2023-01-29T06:30:58;91370.06;;;-0.50;85.78
44481;BME280;30184;42.018;23.670;2023-01-29T06:33:47;91417.69;;;-0.11;85.76
44481;BME280;30184;42.018;23.670;2023-01-29T06:36:17;91568.91;;;0.55;85.58
44481;BME280;30184;42.018;23.670;2023-01-29T06:38:46;91548.28;;;0.56;85.64
44481;BME280;30184;42.018;23.670;2023-01-29T06:41:18;91511.34;;;0.61;85.68
44481;BME280;30184;42.018;23.670;2023-01-29T06:43:52;91527.78;;;0.67;85.80
44481;BME280;30184;42.018;23.670;2023-01-29T06:46:21;91508.38;;;0.70;85.43
44481;BME280;30184;42.018;23.670;2023-01-29T06:48:51;91509.91;;;0.74;85.35
44481;BME280;30184;42.018;23.670;2023-01-29T06:51:21;91518.72;;;0.79;85.35
44481;BME280;30184;42.018;23.670;2023-01-29T06:53:51;91522.97;;;0.83;85.52
44481;BME280;30184;42.018;23.670;2023-01-29T06:56:22;91519.97;;;0.88;85.44
44481;BME280;30184;42.018;23.670;2023-01-29T06:58:52;91522.28;;;0.93;85.29
44481;BME280;30184;42.018;23.670;2023-01-29T07:01:21;91519.19;;;0.88;85.36
44481;BME280;30184;42.018;23.670;2023-01-29T07:04:02;91524.56;;;0.91;85.42
44481;BME280;30184;42.018;23.670;2023-01-29T07:06:32;91535.63;;;0.93;84.86
44481;BME280;30184;42.018;23.670;2023-01-29T07:09:02;91399.69;;;0.23;84.38
44481;BME280;30184;42.018;23.670;2023-01-29T07:11:34;91530.03;;;1.12;83.83
44481;BME280;30184;42.018;23.670;2023-01-29T07:14:05;91529.72;;;1.18;83.57
44481;BME280;30184;42.018;23.670;2023-01-29T07:16:34;91533.94;;;1.22;83.09
44481;BME280;30184;42.018;23.670;2023-01-29T07:19:06;91527.13;;;1.28;82.60
44481;BME280;30184;42.018;23.670;2023-01-29T07:21:36;91529.34;;;1.19;82.21
44481;BME280;30184;42.018;23.670;2023-01-29T07:24:05;91531.34;;;1.33;82.24
44481;BME280;30184;42.018;23.670;2023-01-29T07:26:37;91533.47;;;0.62;81.74
44481;BME280;30184;42.018;23.670;2023-01-29T07:29:08;91552.06;;;1.50;81.52
44481;BME280;30184;42.018;23.670;2023-01-29T07:31:37;91538.31;;;1.48;81.53
44481;BME280;30184;42.018;23.670;2023-01-29T07:34:06;91543.34;;;1.60;81.26
44481;BME280;30184;42.018;23.670;2023-01-29T07:36:36;91517.28;;;1.46;80.89
44481;BME280;30184;42.018;23.670;2023-01-29T07:39:06;91530.38;;;1.69;80.69
44481;BME280;30184;42.018;23.670;2023-01-29T07:41:37;91505.78;;;1.35;80.58
44481;BME280;30184;42.018;23.670;2023-01-29T07:44:15;91544.41;;;1.48;80.31
44481;BME280;30184;42.018;23.670;2023-01-29T07:46:45;91554.81;;;1.64;80.14
44481;BME280;30184;42.018;23.670;2023-01-29T07:49:15;91521.78;;;1.28;79.81
44481;BME280;30184;42.018;23.670;2023-01-29T07:51:44;91537.59;;;1.58;80.21
44481;BME280;30184;42.018;23.670;2023-01-29T07:54:14;91557.19;;;1.80;80.52
44481;BME280;30184;42.018;23.670;2023-01-29T07:56:45;91515.47;;;1.65;80.25
44481;BME280;30184;42.018;23.670;2023-01-29T07:59:15;91518.19;;;1.72;80.03
44481;BME280;30184;42.018;23.670;2023-01-29T08:01:45;91546.94;;;1.96;79.67
44481;BME280;30184;42.018;23.670;2023-01-29T08:04:14;91524.00;;;1.92;79.56
44481;BME280;30184;42.018;23.670;2023-01-29T08:06:43;91520.41;;;1.59;78.73
44481;BME280;30184;42.018;23.670;2023-01-29T08:09:14;91463.06;;;1.46;78.26
44481;BME280;30184;42.018;23.670;2023-01-29T08:11:45;91546.25;;;2.10;78.41
44481;BME280;30184;42.018;23.670;2023-01-29T08:14:15;91547.03;;;2.17;78.12
44481;BME280;30184;42.018;23.670;2023-01-29T08:16:44;91481.53;;;1.79;78.24
44481;BME280;30184;42.018;23.670;2023-01-29T08:19:14;91555.09;;;2.28;79.00
44481;BME280;30184;42.018;23.670;2023-01-29T08:21:43;91542.88;;;2.34;79.37
44481;BME280;30184;42.018;23.670;2023-01-29T08:24:13;91424.94;;;1.70;82.26
44481;BME280;30184;42.018;23.670;2023-01-29T08:26:42;91480.88;;;2.18;80.56
44481;BME280;30184;42.018;23.670;2023-01-29T08:29:13;91545.25;;;2.68;78.82
44481;BME280;30184;42.018;23.670;2023-01-29T08:31:42;91542.56;;;2.68;78.76
44481;BME280;30184;42.018;23.670;2023-01-29T08:34:12;91528.78;;;2.62;78.20
44481;BME280;30184;42.018;23.670;2023-01-29T08:36:44;91564.41;;;2.84;77.54
44481;BME280;30184;42.018;23.670;2023-01-29T08:39:18;91557.88;;;2.81;76.56
44481;BME280;30184;42.018;23.670;2023-01-29T08:41:48;91568.25;;;2.93;76.74
44481;BME280;30184;42.018;23.670;2023-01-29T08:44:18;91528.78;;;2.73;76.30
44481;BME280;30184;42.018;23.670;2023-01-29T08:46:49;91565.22;;;3.06;75.67
44481;BME280;30184;42.018;23.670;2023-01-29T08:49:19;91559.44;;;3.07;73.87
44481;BME280;30184;42.018;23.670;2023-01-29T08:51:49;91513.84;;;2.65;72.81
44481;BME280;30184;42.018;23.670;2023-01-29T08:54:20;91559.84;;;3.13;71.89
44481;BME280;30184;42.018;23.670;2023-01-29T08:56:55;91555.22;;;3.06;70.66
44481;BME280;30184;42.018;23.670;2023-01-29T08:59:35;91377.31;;;1.03;69.83
44481;BME280;30184;42.018;23.670;2023-01-29T09:02:07;91554.47;;;3.09;70.73
44481;BME280;30184;42.018;23.670;2023-01-29T09:04:39;91609.59;;;3.07;71.52
44481;BME280;30184;42.018;23.670;2023-01-29T09:07:09;91569.03;;;3.33;70.47
44481;BME280;30184;42.018;23.670;2023-01-29T09:09:39;91554.47;;;3.27;70.22
44481;BME280;30184;42.018;23.670;2023-01-29T09:12:08;91557.91;;;3.45;70.23
44481;BME280;30184;42.018;23.670;2023-01-29T09:14:38;91566.72;;;3.46;70.10
44481;BME280;30184;42.018;23.670;2023-01-29T09:17:08;91558.25;;;3.54;69.96
44481;BME280;30184;42.018;23.670;2023-01-29T09:19:38;91533.75;;;3.45;69.08
44481;BME280;30184;42.018;23.670;2023-01-29T09:22:07;91558.63;;;3.78;68.33
44481;BME280;30184;42.018;23.670;2023-01-29T09:24:38;91557.84;;;3.81;66.98
44481;BME280;30184;42.018;23.670;2023-01-29T09:27:07;91560.53;;;3.84;66.75
44481;BME280;30184;42.018;23.670;2023-01-29T09:29:39;91581.22;;;3.80;64.25
44481;BME280;30184;42.018;23.670;2023-01-29T09:32:09;91563.19;;;3.84;65.31
44481;BME280;30184;42.018;23.670;2023-01-29T09:34:39;91546.91;;;4.41;66.30
44481;BME280;30184;42.018;23.670;2023-01-29T09:37:09;91572.47;;;4.67;64.98
44481;BME280;30184;42.018;23.670;2023-01-29T09:39:38;91545.50;;;4.84;65.60
44481;BME280;30184;42.018;23.670;2023-01-29T09:42:13;91532.31;;;5.04;64.68
44481;BME280;30184;42.018;23.670;2023-01-29T09:44:55;91530.59;;;5.28;62.90
44481;BME280;30184;42.018;23.670;2023-01-29T09:47:28;91518.91;;;5.45;62.63
44481;BME280;30184;42.018;23.670;2023-01-29T09:50:05;91523.06;;;5.53;60.51
44481;BME280;30184;42.018;23.670;2023-01-29T09:52:39;91412.78;;;5.09;60.06
44481;BME280;30184;42.018;23.670;2023-01-29T09:55:20;91332.78;;;4.79;59.02
44481;BME280;30184;42.018;23.670;2023-01-29T09:57:53;91510.63;;;6.08;58.32
44481;BME280;30184;42.018;23.670;2023-01-29T10:00:32;91439.56;;;5.60;56.26
44481;BME280;30184;42.018;23.670;2023-01-29T10:03:15;91501.66;;;6.18;58.80
44481;BME280;30184;42.018;23.670;2023-01-29T10:06:02;91499.34;;;6.16;58.09
44481;BME280;30184;42.018;23.670;2023-01-29T10:11:42;91491.34;;;6.40;55.88
44481;BME280;30184;42.018;23.670;2023-01-29T10:14:18;91498.28;;;6.41;56.74
44481;BME280;30184;42.018;23.670;2023-01-29T10:17:02;91487.31;;;6.55;56.16
44481;BME280;30184;42.018;23.670;2023-01-29T10:19:51;91410.88;;;5.81;54.43
44481;BME280;30184;42.018;23.670;2023-01-29T10:22:41;91322.69;;;5.28;55.72
44481;BME280;30184;42.018;23.670;2023-01-29T10:25:16;91428.41;;;5.96;53.21
44481;BME280;30184;42.018;23.670;2023-01-29T10:27:52;91502.63;;;6.31;51.93
44481;BME280;30184;42.018;23.670;2023-01-29T10:30:28;91495.03;;;6.22;51.50
44481;BME280;30184;42.018;23.670;2023-01-29T10:33:05;91499.94;;;6.31;51.71
44481;BME280;30184;42.018;23.670;2023-01-29T10:35:39;91438.75;;;5.63;50.56
44481;BME280;30184;42.018;23.670;2023-01-29T10:38:20;91529.66;;;6.58;51.40
44481;BME280;30184;42.018;23.670;2023-01-29T10:40:59;91485.69;;;6.61;50.62
44481;BME280;30184;42.018;23.670;2023-01-29T10:43:31;91460.56;;;6.67;51.17
44481;BME280;30184;42.018;23.670;2023-01-29T10:46:14;91377.50;;;6.05;51.08
44481;BME280;30184;42.018;23.670;2023-01-29T10:48:56;91461.59;;;6.20;51.78
44481;BME280;30184;42.018;23.670;2023-01-29T10:51:40;91459.72;;;5.83;51.94
44481;BME280;30184;42.018;23.670;2023-01-29T10:54:36;91392.72;;;5.17;53.29
44481;BME280;30184;42.018;23.670;2023-01-29T10:57:19;91422.03;;;5.45;53.58
44481;BME280;30184;42.018;23.670;2023-01-29T11:00:01;91474.09;;;5.66;53.98
44481;BME280;30184;42.018;23.670;2023-01-29T11:02:35;91476.47;;;5.60;53.24
44481;BME280;30184;42.018;23.670;2023-01-29T11:05:15;91442.81;;;5.45;53.43
44481;BME280;30184;42.018;23.670;2023-01-29T11:07:56;91455.91;;;5.39;53.15
44481;BME280;30184;42.018;23.670;2023-01-29T11:10:31;91453.75;;;5.27;52.52
44481;BME280;30184;42.018;23.670;2023-01-29T11:13:03;91442.97;;;5.27;54.28
44481;BME280;30184;42.018;23.670;2023-01-29T11:15:33;91425.06;;;5.10;54.72
44481;BME280;30184;42.018;23.670;2023-01-29T11:18:05;91426.97;;;4.68;53.70
44481;BME280;30184;42.018;23.670;2023-01-29T11:20:43;91450.84;;;5.04;54.43
44481;BME280;30184;42.018;23.670;2023-01-29T11:23:25;91441.69;;;4.98;55.13
44481;BME280;30184;42.018;23.670;2023-01-29T11:25:57;91440.94;;;4.97;55.90
44481;BME280;30184;42.018;23.670;2023-01-29T11:28:37;91376.41;;;4.53;56.14
44481;BME280;30184;42.018;23.670;2023-01-29T11:31:21;91441.41;;;4.85;57.03
44481;BME280;30184;42.018;23.670;2023-01-29T11:34:02;91433.41;;;4.78;59.75
44481;BME280;30184;42.018;23.670;2023-01-29T11:36:56;91396.06;;;4.39;59.25
44481;BME280;30184;42.018;23.670;2023-01-29T11:39:27;91412.09;;;4.53;59.82
44481;BME280;30184;42.018;23.670;2023-01-29T11:41:58;91431.69;;;4.50;60.79
44481;BME280;30184;42.018;23.670;2023-01-29T11:44:30;91432.97;;;4.35;61.34
44481;BME280;30184;42.018;23.670;2023-01-29T11:47:14;91425.34;;;4.26;61.97
44481;BME280;30184;42.018;23.670;2023-01-29T11:49:47;91435.75;;;4.13;62.85
44481;BME280;30184;42.018;23.670;2023-01-29T11:52:23;91428.56;;;3.96;63.56
44481;BME280;30184;42.018;23.670;2023-01-29T11:54:55;91433.59;;;3.87;64.31
44481;BME280;30184;42.018;23.670;2023-01-29T11:57:28;91440.53;;;3.74;64.54
44481;BME280;30184;42.018;23.670;2023-01-29T12:00:00;91411.91;;;3.50;64.99
44481;BME280;30184;42.018;23.670;2023-01-29T12:02:53;91429.88;;;3.60;65.24
44481;BME280;30184;42.018;23.670;2023-01-29T12:05:27;91427.19;;;3.60;66.20
44481;BME280;30184;42.018;23.670;2023-01-29T12:07:59;91161.28;;;1.73;65.61
44481;BME280;30184;42.018;23.670;2023-01-29T12:10:32;91210.97;;;1.67;66.47
44481;BME280;30184;42.018;23.670;2023-01-29T12:13:03;91559.81;;;3.48;66.47
44481;BME280;30184;42.018;23.670;2023-01-29T12:15:35;91229.28;;;1.50;66.81
44481;BME280;30184;42.018;23.670;2023-01-29T12:18:15;91179.25;;;1.44;66.66
44481;BME280;30184;42.018;23.670;2023-01-29T12:20:53;91301.13;;;1.87;67.08
44481;BME280;30184;42.018;23.670;2023-01-29T12:23:40;91472.88;;;3.24;67.47
44481;BME280;30184;42.018;23.670;2023-01-29T12:26:15;91426.56;;;3.10;67.59
44481;BME280;30184;42.018;23.670;2023-01-29T12:28:54;91461.06;;;2.86;67.63
44481;BME280;30184;42.018;23.670;2023-01-29T12:31:37;91472.53;;;3.01;68.23
44481;BME280;30184;42.018;23.670;2023-01-29T12:34:10;91436.91;;;2.97;68.27
44481;BME280;30184;42.018;23.670;2023-01-29T12:36:48;91430.78;;;2.89;68.38
44481;BME280;30184;42.018;23.670;2023-01-29T12:39:21;91428.50;;;2.84;68.74
44481;BME280;30184;42.018;23.670;2023-01-29T12:41:55;91330.97;;;2.18;68.76
44481;BME280;30184;42.018;23.670;2023-01-29T12:44:31;91404.03;;;2.36;68.89
44481;BME280;30184;42.018;23.670;2023-01-29T12:47:09;91426.97;;;2.69;69.21
44481;BME280;30184;42.018;23.670;2023-01-29T12:49:44;91431.97;;;2.63;69.89
44481;BME280;30184;42.018;23.670;2023-01-29T12:52:18;91461.81;;;2.55;69.17
44481;BME280;30184;42.018;23.670;2023-01-29T12:54:54;91447.66;;;2.47;69.42
44481;BME280;30184;42.018;23.670;2023-01-29T12:57:35;91425.44;;;2.43;69.57
44481;BME280;30184;42.018;23.670;2023-01-29T13:00:14;91464.09;;;2.32;69.64
44481;BME280;30184;42.018;23.670;2023-01-29T13:02:54;91356.56;;;1.98;70.09
44481;BME280;30184;42.018;23.670;2023-01-29T13:05:32;91372.63;;;2.05;70.02
44481;BME280;30184;42.018;23.670;2023-01-29T13:08:09;91247.56;;;1.13;69.90
44481;BME280;30184;42.018;23.670;2023-01-29T13:10:51;91324.00;;;1.42;69.94
44481;BME280;30184;42.018;23.670;2023-01-29T13:13:30;91428.09;;;2.33;69.52
44481;BME280;30184;42.018;23.670;2023-01-29T13:16:12;91436.13;;;2.33;69.78
44481;BME280;30184;42.018;23.670;2023-01-29T13:18:52;91229.53;;;0.85;68.99
44481;BME280;30184;42.018;23.670;2023-01-29T13:21:26;91205.13;;;0.87;68.79
44481;BME280;30184;42.018;23.670;2023-01-29T13:24:08;91210.41;;;0.65;68.67
44481;BME280;30184;42.018;23.670;2023-01-29T13:26:43;91338.25;;;0.78;68.43
44481;BME280;30184;42.018;23.670;2023-01-29T13:29:21;91438.47;;;2.31;68.47
44481;BME280;30184;42.018;23.670;2023-01-29T13:31:52;91349.59;;;1.50;69.29
44481;BME280;30184;42.018;23.670;2023-01-29T13:34:24;91451.81;;;2.20;69.47
44481;BME280;30184;42.018;23.670;2023-01-29T13:36:58;91327.44;;;0.53;69.25
44481;BME280;30184;42.018;23.670;2023-01-29T13:39:34;91148.06;;;0.19;68.66
44481;BME280;30184;42.018;23.670;2023-01-29T13:42:17;91459.44;;;2.04;69.58
44481;BME280;30184;42.018;23.670;2023-01-29T13:44:49;91465.94;;;2.13;69.91